Time;durP1;ratioP1;P1;durP2;ratioP2;P2;SDS_P1;SDS_P2;PMS_P1;PMS_P2;Temp;Humidity;BMP_temperature;BMP_pressure;BME280_temperature;BME280_humidity;BME280_pressure;Samples;Min_cycle;Max_cycle;Signal;HPM_P1;HPM_P2
2023/12/22 00:00:21;;;;;;;20.60;3.20;;;;;;;3.91;100.00;98500.88;7393512;19;20403;-40
2023/12/22 00:02:50;;;;;;;21.83;3.00;;;;;;;3.91;100.00;98504.28;7370149;19;20772;-39
2023/12/22 00:05:20;;;;;;;25.03;3.60;;;;;;;3.89;100.00;98502.47;7392640;19;20403;-39
2023/12/22 00:07:50;;;;;;;15.37;2.77;;;;;;;3.90;100.00;98515.28;7368684;19;20636;-42
2023/12/22 00:10:20;;;;;;;23.67;3.27;;;;;;;3.89;100.00;98515.25;7393474;19;20411;-44
2023/12/22 00:12:52;;;;;;;22.43;2.33;;;;;;;3.85;100.00;98491.31;7369179;19;20463;-37
2023/12/22 00:15:22;;;;;;;25.47;3.00;;;;;;;3.91;100.00;98498.31;7391551;19;20938;-40
2023/12/22 00:17:52;;;;;;;15.13;2.90;;;;;;;3.86;100.00;98500.72;7368445;19;20467;-38
2023/12/22 00:20:22;;;;;;;16.53;3.70;;;;;;;3.84;100.00;98506.59;7392709;19;20435;-48
2023/12/22 00:22:51;;;;;;;25.70;3.03;;;;;;;3.79;100.00;98524.28;7369838;19;20435;-38
2023/12/22 00:25:21;;;;;;;19.60;3.67;;;;;;;3.76;100.00;98521.63;7392339;19;20411;-37
2023/12/22 00:27:53;;;;;;;23.13;4.13;;;;;;;3.77;100.00;98516.59;7368473;19;20503;-37
2023/12/22 00:30:24;;;;;;;12.67;2.27;;;;;;;3.78;100.00;98530.19;7394387;19;20471;-43
2023/12/22 00:32:53;;;;;;;19.57;3.20;;;;;;;3.77;100.00;98531.03;7366830;19;20435;-38
2023/12/22 00:35:23;;;;;;;16.20;4.03;;;;;;;3.81;100.00;98532.00;7391935;19;20954;-38
2023/12/22 00:37:52;;;;;;;16.23;2.57;;;;;;;3.83;100.00;98538.00;7368613;19;20469;-39
2023/12/22 00:40:22;;;;;;;22.10;4.30;;;;;;;3.86;100.00;98551.75;7392101;19;20415;-38
2023/12/22 00:42:54;;;;;;;19.27;2.60;;;;;;;3.90;100.00;98524.66;7369638;19;21044;-38
2023/12/22 00:45:24;;;;;;;19.90;4.43;;;;;;;3.96;100.00;98534.19;7392517;19;20410;-37
2023/12/22 00:47:54;;;;;;;16.53;2.77;;;;;;;3.95;100.00;98537.56;7372878;19;20457;-39
2023/12/22 00:50:23;;;;;;;10.43;2.77;;;;;;;3.94;100.00;98546.03;7398641;19;20407;-42
2023/12/22 00:52:53;;;;;;;17.23;2.80;;;;;;;3.95;100.00;98537.56;7377004;19;20464;-40
2023/12/22 00:55:23;;;;;;;20.47;3.20;;;;;;;3.98;100.00;98540.19;7402111;19;20431;-39
2023/12/22 00:57:55;;;;;;;11.13;1.40;;;;;;;4.03;100.00;98544.66;7377149;19;20474;-38
2023/12/22 01:00:24;;;;;;;20.70;2.60;;;;;;;4.08;100.00;98539.69;7399606;19;20953;-40
2023/12/22 01:02:54;;;;;;;22.37;3.13;;;;;;;4.09;100.00;98536.31;7377762;19;20455;-38
2023/12/22 01:05:24;;;;;;;17.37;2.97;;;;;;;4.08;100.00;98544.78;7398270;19;20399;-42
2023/12/22 01:07:54;;;;;;;10.13;2.00;;;;;;;4.02;100.00;98553.13;7373207;19;21045;-41
2023/12/22 01:10:23;;;;;;;13.20;2.47;;;;;;;3.99;100.00;98559.81;7398306;19;20407;-43
2023/12/22 01:12:55;;;;;;;16.47;2.83;;;;;;;3.94;100.00;98571.56;7376536;19;20851;-38
2023/12/22 01:15:25;;;;;;;24.10;3.10;;;;;;;3.92;100.00;98585.13;7397008;19;20407;-38
2023/12/22 01:17:55;;;;;;;23.87;2.67;;;;;;;3.83;100.00;98592.47;7375014;19;20463;-39
2023/12/22 01:20:24;;;;;;;10.60;2.10;;;;;;;3.68;100.00;98558.78;7397834;19;20416;-38
2023/12/22 01:22:54;;;;;;;7.00;1.00;;;;;;;3.50;100.00;98559.88;7375914;19;20436;-38
2023/12/22 01:25:24;;;;;;;4.23;1.80;;;;;;;3.40;100.00;98562.91;7398395;19;20757;-38
2023/12/22 01:27:56;;;;;;;19.70;3.27;;;;;;;3.21;100.00;98575.00;7373103;19;20458;-39
2023/12/22 01:30:25;;;;;;;9.37;2.20;;;;;;;2.98;100.00;98557.19;7397181;19;20407;-45
2023/12/22 01:32:55;;;;;;;12.67;2.70;;;;;;;2.75;100.00;98547.00;7373014;19;20986;-39
2023/12/22 01:35:25;;;;;;;10.43;2.50;;;;;;;2.37;100.00;98524.34;7397164;19;20947;-42
2023/12/22 01:37:56;;;;;;;6.70;1.83;;;;;;;2.18;100.00;98504.97;7373243;19;20573;-39
2023/12/22 01:40:26;;;;;;;4.07;1.13;;;;;;;2.08;100.00;98502.84;7391877;19;20404;-38
2023/12/22 01:42:59;;;;;;;15.30;1.30;;;;;;;2.00;100.00;98477.13;7397450;19;20433;-42
2023/12/22 01:45:28;;;;;;;5.37;1.67;;;;;;;1.92;100.00;98481.03;7374062;19;20407;-40
2023/12/22 01:47:58;;;;;;;7.30;2.27;;;;;;;1.91;100.00;98466.59;7393770;19;20432;-44
2023/12/22 01:50:28;;;;;;;8.30;1.57;;;;;;;1.88;100.00;98437.69;7376970;19;20400;-39
2023/12/22 01:52:58;;;;;;;6.00;1.20;;;;;;;1.93;100.00;98465.84;7393234;19;20404;-40
2023/12/22 01:55:27;;;;;;;3.70;0.73;;;;;;;1.93;100.00;98460.75;7378937;19;20823;-38
2023/12/22 01:58:00;;;;;;;6.70;1.40;;;;;;;1.94;100.00;98452.31;7391670;19;20437;-38
2023/12/22 02:00:29;;;;;;;9.37;1.67;;;;;;;1.93;100.00;98434.44;7372749;19;20391;-39
2023/12/22 02:02:59;;;;;;;10.53;1.50;;;;;;;1.88;100.00;98450.41;7395109;19;20463;-40
2023/12/22 02:05:29;;;;;;;8.30;1.23;;;;;;;1.82;100.00;98442.53;7372372;19;20934;-41
2023/12/22 02:07:59;;;;;;;3.47;0.63;;;;;;;1.73;100.00;98437.94;7390305;19;20447;-37
2023/12/22 02:10:28;;;;;;;4.97;0.90;;;;;;;1.66;100.00;98430.00;7370251;19;20387;-43
2023/12/22 02:13:01;;;;;;;9.37;1.00;;;;;;;1.65;100.00;98407.94;7396162;19;20410;-43
2023/12/22 02:15:31;;;;;;;5.90;1.00;;;;;;;1.63;100.00;98405.31;7370339;19;20990;-43
2023/12/22 02:18:05;;;;;;;7.00;1.00;;;;;;;1.62;100.00;98401.06;7390062;19;20483;-38
2023/12/22 02:20:35;;;;;;;6.03;0.97;;;;;;;1.71;100.00;98398.00;7370599;19;20512;-38
2023/12/22 02:23:07;;;;;;;3.37;0.80;;;;;;;1.77;100.00;98403.34;7391262;19;20396;-37
2023/12/22 02:25:36;;;;;;;5.90;0.90;;;;;;;1.82;100.00;98395.88;7370257;19;20397;-38
2023/12/22 02:28:10;;;;;;;4.90;1.10;;;;;;;1.92;100.00;98381.84;7389606;19;20431;-44
2023/12/22 02:30:44;;;;;;;6.57;0.70;;;;;;;1.98;100.00;98392.25;7370231;19;20395;-40
2023/12/22 02:33:18;;;;;;;7.73;1.60;;;;;;;2.05;100.00;98384.03;7391803;19;20390;-38
2023/12/22 02:35:50;;;;;;;10.47;1.40;;;;;;;2.09;100.00;98369.75;7372259;19;20380;-43
2023/12/22 02:38:23;;;;;;;8.90;1.60;;;;;;;2.08;100.00;98374.00;7395045;19;20450;-41
2023/12/22 02:40:52;;;;;;;7.93;1.73;;;;;;;2.01;100.00;98407.66;7372261;19;20395;-38
2023/12/22 02:43:22;;;;;;;6.10;1.93;;;;;;;1.98;100.00;98412.59;7393990;19;20775;-38
2023/12/22 02:45:53;;;;;;;3.53;1.17;;;;;;;1.91;100.00;98383.53;7370355;19;21285;-40
2023/12/22 02:48:22;;;;;;;12.70;2.43;;;;;;;1.93;100.00;98376.81;7392676;19;20443;-41
2023/12/22 02:50:53;;;;;;;6.57;1.20;;;;;;;1.98;100.00;98371.91;7364630;19;21045;-41
2023/12/22 02:53:25;;;;;;;5.73;1.30;;;;;;;1.96;100.00;98360.81;7394523;19;20408;-42
2023/12/22 02:55:55;;;;;;;5.73;1.10;;;;;;;2.00;100.00;98350.81;7371206;19;20462;-41
2023/12/22 02:58:24;;;;;;;13.40;1.63;;;;;;;2.06;100.00;98364.56;7393187;19;20431;-42
2023/12/22 03:00:56;;;;;;;3.20;0.80;;;;;;;2.00;100.00;98368.59;7371199;19;20395;-39
2023/12/22 03:03:26;;;;;;;10.37;1.60;;;;;;;1.98;100.00;98367.69;7391178;19;20408;-41
2023/12/22 03:05:56;;;;;;;10.90;1.40;;;;;;;1.87;100.00;98371.50;7371110;19;20474;-38
2023/12/22 03:08:28;;;;;;;2.77;0.63;;;;;;;1.84;100.00;98353.59;7392277;19;20431;-39
2023/12/22 03:10:58;;;;;;;7.10;1.20;;;;;;;1.78;100.00;98361.00;7371108;19;20510;-38
2023/12/22 03:13:27;;;;;;;4.00;1.57;;;;;;;1.72;100.00;98375.19;7393805;19;20963;-39
2023/12/22 03:15:57;;;;;;;6.37;0.97;;;;;;;1.67;100.00;98366.50;7371630;19;20419;-38
2023/12/22 03:18:26;;;;;;;2.23;0.50;;;;;;;1.62;100.00;98370.53;7392991;19;20442;-37
2023/12/22 03:20:56;;;;;;;7.47;0.63;;;;;;;1.57;100.00;98379.66;7370424;19;20408;-39
2023/12/22 03:23:29;;;;;;;3.30;0.60;;;;;;;1.53;100.00;98358.34;7395210;19;20495;-38
2023/12/22 03:25:58;;;;;;;3.10;0.70;;;;;;;1.52;100.00;98368.44;7371648;19;20800;-38
2023/12/22 03:28:28;;;;;;;5.37;0.90;;;;;;;1.48;100.00;98391.22;7393341;19;20804;-40
2023/12/22 03:30:57;;;;;;;1.70;0.60;;;;;;;1.48;100.00;98381.03;7370293;19;20399;-40
2023/12/22 03:33:27;;;;;;;8.30;0.87;;;;;;;1.46;100.00;98381.78;7393723;19;20483;-47
2023/12/22 03:35:57;;;;;;;3.63;1.00;;;;;;;1.44;100.00;98380.88;7370021;19;20370;-37
2023/12/22 03:38:29;;;;;;;6.50;0.97;;;;;;;1.45;100.00;98387.69;7392385;19;20522;-40
2023/12/22 03:40:58;;;;;;;3.80;0.90;;;;;;;1.45;100.00;98380.91;7371852;19;20474;-41
2023/12/22 03:43:28;;;;;;;4.77;0.83;;;;;;;1.43;100.00;98374.06;7394589;19;20410;-38
2023/12/22 03:45:58;;;;;;;4.90;0.77;;;;;;;1.46;100.00;98372.50;7368410;19;20415;-38
2023/12/22 03:48:27;;;;;;;7.90;1.70;;;;;;;1.51;100.00;98366.72;7392368;19;20510;-38
2023/12/22 03:50:57;;;;;;;4.50;0.80;;;;;;;1.50;100.00;98383.66;7371009;19;20401;-41
2023/12/22 03:53:29;;;;;;;3.20;0.73;;;;;;;1.50;100.00;98362.44;7392552;19;20773;-37
2023/12/22 03:55:59;;;;;;;6.20;1.80;;;;;;;1.53;100.00;98372.75;7366893;19;20391;-41
2023/12/22 03:58:31;;;;;;;4.47;1.20;;;;;;;1.54;100.00;98377.00;7391860;19;20439;-39
2023/12/22 04:01:01;;;;;;;1.90;0.63;;;;;;;1.55;100.00;98366.91;7368826;19;20392;-38
2023/12/22 04:03:30;;;;;;;5.10;1.27;;;;;;;1.60;100.00;98379.81;7392451;19;20403;-38
2023/12/22 04:06:00;;;;;;;5.03;1.07;;;;;;;1.66;100.00;98385.13;7370883;19;20776;-41
2023/12/22 04:08:32;;;;;;;4.47;0.70;;;;;;;1.74;100.00;98388.81;7391851;19;20443;-39
2023/12/22 04:11:02;;;;;;;8.33;1.60;;;;;;;1.80;100.00;98372.94;7369026;19;20395;-39
2023/12/22 04:13:35;;;;;;;11.37;1.37;;;;;;;1.85;100.00;98365.50;7391206;19;20400;-43
2023/12/22 04:16:05;;;;;;;7.47;1.43;;;;;;;1.97;100.00;98340.53;7369947;19;20782;-36
2023/12/22 04:18:35;;;;;;;14.07;1.73;;;;;;;2.21;100.00;98360.03;7389932;19;20856;-40
2023/12/22 04:21:05;;;;;;;9.80;1.63;;;;;;;2.31;100.00;98355.28;7371791;19;20406;-36
2023/12/22 04:23:37;;;;;;;19.03;2.30;;;;;;;2.46;100.00;98395.72;7396649;19;20463;-37
2023/12/22 04:26:06;;;;;;;17.90;1.90;;;;;;;2.55;100.00;98374.00;7377619;19;20435;-45
2023/12/22 04:28:36;;;;;;;17.87;1.87;;;;;;;2.62;100.00;98382.69;7395973;19;20439;-41
2023/12/22 04:31:06;;;;;;;15.23;2.73;;;;;;;2.67;100.00;98395.63;7375299;19;20466;-37
2023/12/22 04:33:36;;;;;;;17.20;1.73;;;;;;;2.59;100.00;98386.81;7396774;19;20400;-40
2023/12/22 04:36:06;;;;;;;15.97;1.80;;;;;;;2.51;100.00;98387.41;7374770;19;21314;-43
2023/12/22 04:38:40;;;;;;;16.77;1.90;;;;;;;2.41;100.00;98387.91;7397275;19;20565;-38
2023/12/22 04:41:09;;;;;;;17.70;2.10;;;;;;;2.40;100.00;98401.44;7375120;19;20391;-40
2023/12/22 04:43:39;;;;;;;14.17;2.53;;;;;;;2.41;100.00;98377.75;7396462;19;20466;-40
2023/12/22 04:46:09;;;;;;;12.80;1.00;;;;;;;2.47;100.00;98377.06;7373329;19;20774;-39
2023/12/22 04:48:38;;;;;;;9.13;1.43;;;;;;;2.49;100.00;98389.06;7397073;19;20539;-37
2023/12/22 04:51:08;;;;;;;5.20;1.13;;;;;;;2.42;100.00;98382.00;7372408;19;20411;-40
2023/12/22 04:53:40;;;;;;;6.00;1.23;;;;;;;2.38;100.00;98362.34;7394194;19;20396;-37
2023/12/22 04:56:10;;;;;;;19.37;3.30;;;;;;;2.40;100.00;98360.69;7373781;19;20407;-40
2023/12/22 04:58:40;;;;;;;12.60;1.60;;;;;;;2.45;100.00;98359.19;7394709;19;20443;-37
2023/12/22 05:01:09;;;;;;;7.23;1.70;;;;;;;2.48;100.00;98366.06;7374193;19;20426;-41
2023/12/22 05:03:39;;;;;;;7.07;1.67;;;;;;;2.56;100.00;98364.66;7393774;19;20762;-39
2023/12/22 05:06:09;;;;;;;10.87;1.57;;;;;;;2.61;100.00;98377.59;7370323;19;20385;-39
2023/12/22 05:08:41;;;;;;;9.47;0.90;;;;;;;2.67;100.00;98372.69;7392739;19;20459;-40
2023/12/22 05:11:11;;;;;;;9.10;1.27;;;;;;;2.68;100.00;98392.25;7372013;19;20427;-38
2023/12/22 05:13:42;;;;;;;12.50;2.10;;;;;;;2.63;100.00;98373.41;7393428;19;20919;-37
2023/12/22 05:16:11;;;;;;;11.97;1.37;;;;;;;2.68;100.00;98441.50;7372486;19;20417;-44
2023/12/22 05:18:42;;;;;;;6.73;2.13;;;;;;;2.77;100.00;98437.56;7392310;19;20981;-38
2023/12/22 05:21:14;;;;;;;9.40;1.60;;;;;;;2.80;100.00;98441.09;7372468;19;20399;-37
2023/12/22 05:23:47;;;;;;;7.30;1.40;;;;;;;2.70;100.00;98446.66;7393917;19;20388;-43
2023/12/22 05:26:19;;;;;;;14.53;2.53;;;;;;;2.50;100.00;98438.28;7372406;19;20403;-38
2023/12/22 05:28:49;;;;;;;13.47;2.00;;;;;;;2.37;100.00;98442.06;7392677;19;20430;-39
2023/12/22 05:31:19;;;;;;;9.47;2.63;;;;;;;2.29;100.00;98445.19;7371226;19;20395;-37
2023/12/22 05:33:49;;;;;;;6.57;1.40;;;;;;;2.31;100.00;98472.38;7392584;19;20387;-37
2023/12/22 05:36:18;;;;;;;7.47;1.37;;;;;;;2.29;100.00;98495.19;7373882;19;20895;-42
2023/12/22 05:38:50;;;;;;;13.60;1.20;;;;;;;2.15;100.00;98545.53;7391729;19;20420;-43
2023/12/22 05:41:20;;;;;;;10.07;1.50;;;;;;;1.45;100.00;98496.97;7371313;19;20391;-37
2023/12/22 05:43:50;;;;;;;5.30;1.37;;;;;;;0.92;100.00;98480.34;7392101;19;20994;-37
2023/12/22 05:46:19;;;;;;;11.60;1.20;;;;;;;0.75;100.00;98471.13;7369929;19;20392;-37
2023/12/22 05:48:49;;;;;;;15.40;2.40;;;;;;;0.54;100.00;98476.97;7392377;19;20439;-38
2023/12/22 05:51:21;;;;;;;8.80;1.40;;;;;;;0.45;100.00;98453.72;7372558;19;20444;-38
2023/12/22 05:53:54;;;;;;;8.83;1.37;;;;;;;0.43;100.00;98452.78;7392594;19;20392;-41
2023/12/22 05:56:23;;;;;;;4.67;1.53;;;;;;;0.36;100.00;98447.41;7371021;19;20405;-38
2023/12/22 05:58:53;;;;;;;4.03;1.00;;;;;;;0.35;100.00;98470.19;7391562;19;20416;-40
2023/12/22 06:01:23;;;;;;;6.33;0.97;;;;;;;0.32;100.00;98465.88;7373212;19;20395;-39
2023/12/22 06:03:53;;;;;;;7.20;1.40;;;;;;;0.32;100.00;98481.09;7392246;19;20413;-37
2023/12/22 06:06:23;;;;;;;6.80;1.50;;;;;;;0.35;100.00;98471.06;7371866;19;20407;-38
2023/12/22 06:08:55;;;;;;;10.95;2.30;;;;;;;0.43;100.00;98483.22;7391279;19;20162;-38
2023/12/22 06:11:25;;;;;;;5.60;0.90;;;;;;;0.50;100.00;98505.53;7370768;19;20265;-38
2023/12/22 06:13:54;;;;;;;8.35;1.48;;;;;;;0.60;100.00;98486.53;7392502;19;20388;-38
2023/12/22 06:16:24;;;;;;;13.33;1.83;;;;;;;0.56;100.00;98484.66;7370599;19;20198;-37
2023/12/22 06:18:54;;;;;;;5.67;1.20;;;;;;;0.57;100.00;98487.28;7391123;19;20442;-38
2023/12/22 06:21:24;;;;;;;7.90;1.20;;;;;;;0.65;100.00;98483.41;7369903;19;20818;-42
2023/12/22 06:23:56;;;;;;;11.93;2.27;;;;;;;0.72;100.00;98491.31;7391871;19;20380;-40
2023/12/22 06:26:26;;;;;;;10.67;1.40;;;;;;;0.76;100.00;98496.56;7370952;19;20465;-38
2023/12/22 06:28:56;;;;;;;7.27;2.20;;;;;;;0.78;100.00;98491.56;7391186;19;20877;-38
2023/12/22 06:31:25;;;;;;;13.03;2.00;;;;;;;0.85;100.00;98496.13;7370215;19;20440;-38
2023/12/22 06:34:00;;;;;;;12.93;1.60;;;;;;;0.91;100.00;98498.03;7391579;19;20388;-42
2023/12/22 06:36:31;;;;;;;14.30;2.17;;;;;;;1.04;100.00;98514.72;7370448;19;20426;-38
2023/12/22 06:39:03;;;;;;;16.40;1.67;;;;;;;1.08;100.00;98521.66;7390108;19;20427;-39
2023/12/22 06:41:33;;;;;;;14.87;2.63;;;;;;;1.11;100.00;98552.28;7369509;19;20423;-39
2023/12/22 06:44:03;;;;;;;10.43;1.13;;;;;;;1.19;100.00;98557.69;7390987;19;20738;-38
2023/12/22 06:46:33;;;;;;;16.70;2.13;;;;;;;1.30;100.00;98568.31;7368572;19;20873;-39
2023/12/22 06:49:03;;;;;;;9.27;2.20;;;;;;;1.37;100.00;98580.50;7390386;19;20800;-40
2023/12/22 06:51:35;;;;;;;9.27;1.57;;;;;;;1.50;100.00;98604.78;7369680;19;20386;-37
2023/12/22 06:54:08;;;;;;;9.87;1.93;;;;;;;1.58;100.00;98602.56;7391397;19;20404;-42
2023/12/22 06:56:41;;;;;;;21.90;2.20;;;;;;;1.69;100.00;98634.41;7364067;19;20499;-42
2023/12/22 06:59:11;;;;;;;15.33;2.50;;;;;;;1.83;100.00;98636.66;7389992;19;20792;-39
2023/12/22 07:01:44;;;;;;;18.73;2.63;;;;;;;1.92;100.00;98647.25;7368009;19;20407;-37
2023/12/22 07:04:29;;;;;;;15.60;2.00;;;;;;;2.07;100.00;98656.31;7389993;19;20407;-37
2023/12/22 07:06:59;;;;;;;20.10;4.70;;;;;;;2.12;100.00;98665.03;7369807;19;20917;-37
2023/12/22 07:09:37;;;;;;;22.70;4.53;;;;;;;2.22;100.00;98684.09;7394162;19;20460;-36
2023/12/22 07:12:08;;;;;;;17.20;2.30;;;;;;;2.25;100.00;98687.63;7368090;19;20519;-41
2023/12/22 07:14:38;;;;;;;19.73;2.47;;;;;;;2.25;100.00;98699.50;7393841;19;20411;-37
2023/12/22 07:17:07;;;;;;;32.20;4.73;;;;;;;2.36;100.00;98699.94;7367058;19;20431;-40
2023/12/22 07:19:37;;;;;;;16.07;2.60;;;;;;;2.26;100.00;98699.53;7394262;19;20514;-38
2023/12/22 07:22:06;;;;;;;11.90;2.30;;;;;;;2.21;100.00;98721.38;7369916;19;20829;-38
2023/12/22 07:24:38;;;;;;;12.97;2.70;;;;;;;2.22;100.00;98715.50;7393157;19;20384;-38
2023/12/22 07:27:08;;;;;;;19.70;3.20;;;;;;;2.28;100.00;98741.22;7369184;19;21158;-41
2023/12/22 07:29:37;;;;;;;22.53;3.30;;;;;;;2.30;100.00;98731.06;7393279;19;20457;-42
2023/12/22 07:32:08;;;;;;;14.40;4.23;;;;;;;2.33;100.00;98745.63;7370547;19;20427;-38
2023/12/22 07:34:37;;;;;;;19.30;2.57;;;;;;;2.38;100.00;98764.50;7390079;19;20408;-38
2023/12/22 07:37:08;;;;;;;10.00;2.37;;;;;;;2.40;100.00;98773.06;7370280;19;20420;-38
2023/12/22 07:39:42;;;;;;;18.70;2.77;;;;;;;2.44;100.00;98802.94;7392607;19;20807;-39
2023/12/22 07:42:12;;;;;;;12.27;2.40;;;;;;;2.49;100.00;98809.13;7370486;19;20419;-44
2023/12/22 07:44:43;;;;;;;15.50;2.50;;;;;;;2.50;100.00;98805.75;7393185;19;20434;-39
2023/12/22 07:47:12;;;;;;;19.67;2.60;;;;;;;2.48;100.00;98799.75;7367762;19;20454;-38
2023/12/22 07:49:43;;;;;;;13.27;2.20;;;;;;;2.35;100.00;98821.25;7392243;19;20447;-40
2023/12/22 07:52:16;;;;;;;16.73;2.63;;;;;;;2.32;100.00;98820.22;7369046;19;20431;-38
2023/12/22 07:54:50;;;;;;;24.33;3.33;;;;;;;2.24;100.00;98824.97;7396387;19;20387;-38
2023/12/22 07:57:20;;;;;;;16.17;2.50;;;;;;;2.20;100.00;98821.44;7376612;19;20514;-39
2023/12/22 07:59:50;;;;;;;17.50;2.80;;;;;;;2.15;100.00;98822.91;7398935;19;20799;-37
2023/12/22 08:02:19;;;;;;;15.87;3.43;;;;;;;2.16;100.00;98822.13;7376999;19;20838;-38
2023/12/22 08:04:49;;;;;;;21.13;3.23;;;;;;;2.16;100.00;98834.84;7398629;19;20419;-38
2023/12/22 08:07:18;;;;;;;15.00;2.80;;;;;;;2.16;100.00;98829.75;7376122;19;20453;-38
2023/12/22 08:09:51;;;;;;;11.60;2.60;;;;;;;1.93;100.00;98847.38;7397940;19;20456;-40
2023/12/22 08:12:20;;;;;;;7.93;1.50;;;;;;;1.39;100.00;98774.56;7376876;19;20415;-43
2023/12/22 08:14:50;;;;;;;3.57;0.83;;;;;;;1.04;100.00;98756.00;7398546;19;20424;-37
2023/12/22 08:17:19;;;;;;;15.70;2.20;;;;;;;0.94;100.00;98760.63;7373210;19;20450;-37
2023/12/22 08:19:49;;;;;;;9.53;1.53;;;;;;;0.92;100.00;98747.00;7398875;19;20811;-39
2023/12/22 08:22:22;;;;;;;7.63;1.70;;;;;;;1.01;100.00;98740.59;7376092;19;20443;-37
2023/12/22 08:24:59;;;;;;;12.87;1.73;;;;;;;1.07;100.00;98736.69;7398789;19;20415;-38
2023/12/22 08:27:29;;;;;;;14.70;1.80;;;;;;;1.15;100.00;98731.09;7375928;19;20440;-37
2023/12/22 08:29:58;;;;;;;20.17;2.20;;;;;;;1.18;100.00;98737.19;7398213;19;20818;-44
2023/12/22 08:32:28;;;;;;;10.37;1.40;;;;;;;1.18;100.00;98741.44;7374089;19;20450;-39
2023/12/22 08:35:00;;;;;;;12.97;2.10;;;;;;;1.21;100.00;98732.28;7396456;19;20398;-39
2023/12/22 08:37:30;;;;;;;16.63;1.90;;;;;;;1.21;100.00;98726.31;7375759;19;20415;-38
2023/12/22 08:40:02;;;;;;;9.30;1.80;;;;;;;1.21;100.00;98739.91;7394775;19;20392;-38
2023/12/22 08:42:33;;;;;;;7.33;1.70;;;;;;;1.34;100.00;98725.22;7376467;19;20812;-38
2023/12/22 08:45:02;;;;;;;10.77;2.80;;;;;;;1.45;100.00;98726.56;7400966;19;20428;-40
2023/12/22 08:47:32;;;;;;;13.90;2.60;;;;;;;1.53;100.00;98731.16;7373670;19;20434;-43
2023/12/22 08:50:04;;;;;;;19.60;3.60;;;;;;;1.56;100.00;98734.69;7400816;19;21063;-47
2023/12/22 08:52:34;;;;;;;23.03;3.23;;;;;;;1.72;100.00;98726.09;7371292;19;20423;-42
2023/12/22 08:55:08;;;;;;;13.13;1.87;;;;;;;1.82;100.00;98746.81;7397320;19;21277;-39
2023/12/22 08:57:37;;;;;;;22.70;2.40;;;;;;;1.93;100.00;98753.25;7375152;19;20490;-45
2023/12/22 09:00:18;;;;;;;7.97;1.40;;;;;;;1.99;100.00;98755.19;7397471;19;20399;-43
2023/12/22 09:02:48;;;;;;;10.83;2.70;;;;;;;2.04;100.00;98786.81;7374769;19;20406;-40
2023/12/22 09:05:19;;;;;;;6.80;1.57;;;;;;;2.11;100.00;98800.69;7398917;19;20424;-39
2023/12/22 09:07:50;;;;;;;9.23;1.70;;;;;;;2.20;100.00;98823.13;7372841;19;20475;-43
2023/12/22 09:10:22;;;;;;;14.63;2.87;;;;;;;2.24;100.00;98842.78;7400939;19;20410;-37
2023/12/22 09:12:52;;;;;;;7.93;1.20;;;;;;;2.31;100.00;98829.56;7374714;19;20435;-39
2023/12/22 09:15:21;;;;;;;7.90;1.90;;;;;;;2.33;100.00;98878.84;7398204;19;20408;-38
2023/12/22 09:17:52;;;;;;;23.13;4.47;;;;;;;2.34;100.00;98882.25;7374562;19;20485;-38
2023/12/22 09:20:23;;;;;;;15.47;1.67;;;;;;;2.35;100.00;98912.88;7398612;19;20412;-38
2023/12/22 09:22:53;;;;;;;16.70;4.23;;;;;;;2.36;100.00;98918.84;7376203;19;20435;-39
2023/12/22 09:25:28;;;;;;;11.53;1.87;;;;;;;2.37;100.00;98920.59;7395014;19;20487;-40
2023/12/22 09:27:59;;;;;;;3.97;1.40;;;;;;;2.45;100.00;98934.53;7374450;19;20474;-38
2023/12/22 09:30:29;;;;;;;5.40;1.10;;;;;;;2.50;100.00;98939.81;7374222;19;20428;-39
2023/12/22 09:32:59;;;;;;;8.10;1.67;;;;;;;2.56;100.00;98928.25;7394839;19;20927;-38
2023/12/22 09:35:29;;;;;;;8.60;1.70;;;;;;;2.62;100.00;98934.41;7373042;19;20416;-39
2023/12/22 09:37:59;;;;;;;8.43;1.70;;;;;;;2.73;100.00;98929.78;7395771;19;20435;-38
2023/12/22 09:40:34;;;;;;;7.43;1.53;;;;;;;2.83;100.00;98942.13;7375080;19;20399;-39
2023/12/22 09:43:05;;;;;;;9.60;1.50;;;;;;;2.84;100.00;98929.44;7394746;19;20423;-37
2023/12/22 09:45:35;;;;;;;23.10;4.60;;;;;;;2.97;100.00;98942.72;7371404;19;20463;-37
2023/12/22 09:48:06;;;;;;;20.90;4.13;;;;;;;3.07;100.00;98952.50;7394073;19;20447;-38
2023/12/22 09:50:36;;;;;;;66.80;15.27;;;;;;;3.15;100.00;98945.19;7374775;19;20424;-40
2023/12/22 09:53:07;;;;;;;75.67;22.47;;;;;;;3.20;100.00;98940.28;7394823;19;20429;-37
2023/12/22 09:55:40;;;;;;;22.77;3.27;;;;;;;3.18;100.00;98947.00;7372339;19;20482;-37
2023/12/22 09:58:10;;;;;;;40.80;10.20;;;;;;;3.21;100.00;98922.50;7391891;19;20451;-38
2023/12/22 10:00:40;;;;;;;6.83;1.27;;;;;;;3.31;100.00;98939.06;7373605;19;20399;-37
2023/12/22 10:03:10;;;;;;;15.67;3.43;;;;;;;3.37;100.00;98944.41;7395191;19;20487;-37
2023/12/22 10:05:40;;;;;;;17.07;2.50;;;;;;;3.29;100.00;98947.44;7373983;19;20423;-39
2023/12/22 10:08:11;;;;;;;12.83;3.00;;;;;;;3.23;100.00;98940.44;7395239;19;20456;-40
2023/12/22 10:10:44;;;;;;;20.00;1.83;;;;;;;3.15;100.00;98944.31;7372950;19;20396;-37
2023/12/22 10:13:14;;;;;;;18.13;1.80;;;;;;;3.07;100.00;98965.25;7395017;19;20411;-36
2023/12/22 10:15:44;;;;;;;12.23;2.67;;;;;;;3.14;100.00;98950.22;7372862;19;20412;-37
2023/12/22 10:18:14;;;;;;;16.07;3.10;;;;;;;3.17;100.00;98958.88;7391884;19;20443;-36
2023/12/22 10:20:44;;;;;;;29.17;8.10;;;;;;;3.15;100.00;98942.66;7372765;19;20403;-37
2023/12/22 10:23:13;;;;;;;25.37;5.53;;;;;;;3.22;100.00;98946.31;7394880;19;20408;-37
2023/12/22 10:25:46;;;;;;;19.47;3.83;;;;;;;3.22;100.00;98946.31;7371090;19;20431;-37
2023/12/22 10:28:21;;;;;;;11.10;2.50;;;;;;;3.22;100.00;98972.69;7394213;19;20555;-37
2023/12/22 10:30:52;;;;;;;14.03;1.97;;;;;;;3.23;100.00;98959.13;7367722;19;20399;-37
2023/12/22 10:33:21;;;;;;;5.13;1.23;;;;;;;3.20;100.00;98948.81;7386014;19;20966;-39
2023/12/22 10:35:52;;;;;;;14.27;1.90;;;;;;;3.27;100.00;98960.13;7364754;19;20815;-41
2023/12/22 10:38:22;;;;;;;18.67;4.70;;;;;;;3.34;100.00;98966.38;7384309;19;20438;-39
2023/12/22 10:40:54;;;;;;;29.87;8.40;;;;;;;3.32;100.00;98955.22;7364374;19;21266;-38
2023/12/22 10:43:24;;;;;;;16.23;2.00;;;;;;;3.36;100.00;98975.81;7383095;19;20418;-37
2023/12/22 10:45:54;;;;;;;8.30;1.60;;;;;;;3.32;100.00;98989.25;7361985;19;20503;-38
2023/12/22 10:48:24;;;;;;;14.77;3.07;;;;;;;3.37;100.00;98975.00;7383556;19;20996;-39
2023/12/22 10:50:54;;;;;;;17.27;3.23;;;;;;;3.40;100.00;98960.63;7363590;19;20415;-38
2023/12/22 10:53:24;;;;;;;18.67;2.20;;;;;;;3.45;100.00;98974.47;7384705;19;20408;-37
2023/12/22 10:55:56;;;;;;;11.97;3.03;;;;;;;3.48;100.00;98959.28;7362697;19;20428;-36
2023/12/22 10:58:26;;;;;;;10.40;1.73;;;;;;;3.41;100.00;98975.13;7383534;19;20467;-37
2023/12/22 11:00:56;;;;;;;17.03;4.83;;;;;;;3.37;100.00;98989.44;7363522;19;20436;-37
2023/12/22 11:03:26;;;;;;;21.60;5.20;;;;;;;3.34;100.00;98977.41;7384589;19;20479;-40
2023/12/22 11:05:57;;;;;;;8.70;3.10;;;;;;;3.37;100.00;98976.69;7362194;19;20817;-38
2023/12/22 11:08:28;;;;;;;9.67;1.80;;;;;;;3.39;100.00;98977.63;7383706;19;20446;-42
2023/12/22 11:11:04;;;;;;;27.67;5.53;;;;;;;3.41;100.00;98992.97;7364982;19;20431;-38
2023/12/22 11:13:34;;;;;;;14.23;2.50;;;;;;;3.44;100.00;98980.38;7385572;19;20419;-38
2023/12/22 11:16:04;;;;;;;14.60;2.67;;;;;;;3.40;100.00;98989.56;7363716;19;20443;-38
2023/12/22 11:18:36;;;;;;;12.37;2.60;;;;;;;3.42;100.00;99010.00;7384976;19;20439;-38
2023/12/22 11:21:08;;;;;;;18.23;2.57;;;;;;;3.47;100.00;99004.31;7364400;19;20498;-41
2023/12/22 11:23:38;;;;;;;13.43;2.03;;;;;;;3.50;100.00;99006.13;7387299;19;20407;-41
2023/12/22 11:26:11;;;;;;;13.50;1.53;;;;;;;3.53;100.00;99007.94;7370525;19;20418;-37
2023/12/22 11:28:41;;;;;;;29.83;6.67;;;;;;;3.60;100.00;99008.25;7391182;19;20474;-37
2023/12/22 11:31:12;;;;;;;10.73;3.63;;;;;;;3.58;100.00;98992.00;7371233;19;20426;-39
2023/12/22 11:33:46;;;;;;;10.90;2.60;;;;;;;3.59;100.00;98998.84;7385934;19;20406;-39
2023/12/22 11:36:34;;;;;;;10.73;1.80;;;;;;;3.46;100.00;98982.19;7359138;19;20822;-40
2023/12/22 11:39:04;;;;;;;16.87;1.77;;;;;;;3.43;100.00;98971.84;7366375;19;20447;-39
2023/12/22 11:41:38;;;;;;;8.70;1.43;;;;;;;3.37;100.00;98969.91;7365241;19;20419;-40
2023/12/22 11:44:08;;;;;;;14.83;1.87;;;;;;;3.34;100.00;98962.13;7389945;19;20761;-41